sensor_id;sensor_type;location;lat;lon;timestamp;temperature;humidity
5172;DHT22;2605;49.770;9.868;2022-07-03T00:01:55;16.40;99.90
5172;DHT22;2605;49.770;9.868;2022-07-03T00:04:20;16.50;99.90
5172;DHT22;2605;49.770;9.868;2022-07-03T00:06:46;16.40;99.90
5172;DHT22;2605;49.770;9.868;2022-07-03T00:09:15;16.40;99.90
5172;DHT22;2605;49.770;9.868;2022-07-03T00:11:42;16.50;99.90
5172;DHT22;2605;49.770;9.868;2022-07-03T00:14:08;16.40;99.90
5172;DHT22;2605;49.770;9.868;2022-07-03T00:16:33;16.50;99.90
5172;DHT22;2605;49.770;9.868;2022-07-03T00:18:59;16.60;99.90
5172;DHT22;2605;49.770;9.868;2022-07-03T00:21:53;16.60;99.90
5172;DHT22;2605;49.770;9.868;2022-07-03T00:24:25;16.70;99.90
5172;DHT22;2605;49.770;9.868;2022-07-03T00:26:52;16.60;99.90
5172;DHT22;2605;49.770;9.868;2022-07-03T00:29:21;16.60;99.90
5172;DHT22;2605;49.770;9.868;2022-07-03T00:31:48;16.60;99.90
5172;DHT22;2605;49.770;9.868;2022-07-03T00:34:16;16.60;99.90
5172;DHT22;2605;49.770;9.868;2022-07-03T00:36:42;16.60;99.90
5172;DHT22;2605;49.770;9.868;2022-07-03T00:39:08;16.70;99.90
5172;DHT22;2605;49.770;9.868;2022-07-03T00:41:35;16.70;99.90
5172;DHT22;2605;49.770;9.868;2022-07-03T00:44:02;16.70;99.90
5172;DHT22;2605;49.770;9.868;2022-07-03T00:46:28;16.50;99.90
5172;DHT22;2605;49.770;9.868;2022-07-03T00:48:58;16.50;99.90
5172;DHT22;2605;49.770;9.868;2022-07-03T00:51:28;16.40;99.90
5172;DHT22;2605;49.770;9.868;2022-07-03T00:53:56;16.30;99.90
5172;DHT22;2605;49.770;9.868;2022-07-03T00:56:31;16.20;99.90
5172;DHT22;2605;49.770;9.868;2022-07-03T00:59:00;16.10;99.90
5172;DHT22;2605;49.770;9.868;2022-07-03T01:01:35;16.10;99.90
5172;DHT22;2605;49.770;9.868;2022-07-03T01:07:06;16.10;99.90
5172;DHT22;2605;49.770;9.868;2022-07-03T01:12:55;15.90;99.90
5172;DHT22;2605;49.770;9.868;2022-07-03T01:18:08;15.80;99.90
5172;DHT22;2605;49.770;9.868;2022-07-03T01:20:38;15.80;99.90
5172;DHT22;2605;49.770;9.868;2022-07-03T01:23:19;15.70;99.90
5172;DHT22;2605;49.770;9.868;2022-07-03T01:25:47;15.70;99.90
5172;DHT22;2605;49.770;9.868;2022-07-03T01:28:19;15.60;99.90
5172;DHT22;2605;49.770;9.868;2022-07-03T01:30:50;15.50;99.90
5172;DHT22;2605;49.770;9.868;2022-07-03T01:33:19;15.40;99.90
5172;DHT22;2605;49.770;9.868;2022-07-03T01:35:58;15.40;99.90
5172;DHT22;2605;49.770;9.868;2022-07-03T01:38:40;15.30;99.90
5172;DHT22;2605;49.770;9.868;2022-07-03T01:41:08;15.30;99.90
5172;DHT22;2605;49.770;9.868;2022-07-03T01:43:42;15.30;99.90
5172;DHT22;2605;49.770;9.868;2022-07-03T01:46:12;15.30;99.90
5172;DHT22;2605;49.770;9.868;2022-07-03T01:48:42;15.30;99.90
5172;DHT22;2605;49.770;9.868;2022-07-03T01:51:09;15.20;99.90
5172;DHT22;2605;49.770;9.868;2022-07-03T01:53:44;15.20;99.90
5172;DHT22;2605;49.770;9.868;2022-07-03T01:56:11;15.10;99.90
5172;DHT22;2605;49.770;9.868;2022-07-03T01:58:37;15.10;99.90
5172;DHT22;2605;49.770;9.868;2022-07-03T02:01:10;15.00;99.90
5172;DHT22;2605;49.770;9.868;2022-07-03T02:03:42;15.00;99.90
5172;DHT22;2605;49.770;9.868;2022-07-03T02:09:08;15.10;99.90
5172;DHT22;2605;49.770;9.868;2022-07-03T02:11:36;15.10;99.90
5172;DHT22;2605;49.770;9.868;2022-07-03T02:19:55;15.20;99.90
5172;DHT22;2605;49.770;9.868;2022-07-03T02:22:34;15.10;99.90
5172;DHT22;2605;49.770;9.868;2022-07-03T02:25:08;15.10;99.90
5172;DHT22;2605;49.770;9.868;2022-07-03T02:27:50;15.10;99.90
5172;DHT22;2605;49.770;9.868;2022-07-03T02:30:16;15.10;99.90
5172;DHT22;2605;49.770;9.868;2022-07-03T02:32:52;15.10;99.90
5172;DHT22;2605;49.770;9.868;2022-07-03T02:37:53;15.10;99.90
5172;DHT22;2605;49.770;9.868;2022-07-03T02:43:10;15.00;99.90
5172;DHT22;2605;49.770;9.868;2022-07-03T02:45:48;15.00;99.90
5172;DHT22;2605;49.770;9.868;2022-07-03T02:48:33;15.10;99.90
5172;DHT22;2605;49.770;9.868;2022-07-03T02:51:04;15.00;99.90
5172;DHT22;2605;49.770;9.868;2022-07-03T02:53:38;15.00;99.90
5172;DHT22;2605;49.770;9.868;2022-07-03T02:56:26;15.00;99.90
5172;DHT22;2605;49.770;9.868;2022-07-03T02:59:22;15.00;99.90
5172;DHT22;2605;49.770;9.868;2022-07-03T03:02:02;14.90;99.90
5172;DHT22;2605;49.770;9.868;2022-07-03T03:04:30;14.80;99.90
5172;DHT22;2605;49.770;9.868;2022-07-03T03:07:14;14.70;99.90
5172;DHT22;2605;49.770;9.868;2022-07-03T03:09:47;14.70;99.90
5172;DHT22;2605;49.770;9.868;2022-07-03T03:12:14;14.70;99.90
5172;DHT22;2605;49.770;9.868;2022-07-03T03:14:44;14.70;99.90
5172;DHT22;2605;49.770;9.868;2022-07-03T03:17:16;14.70;99.90
5172;DHT22;2605;49.770;9.868;2022-07-03T03:19:55;14.70;99.90
5172;DHT22;2605;49.770;9.868;2022-07-03T03:25:00;14.60;99.90
5172;DHT22;2605;49.770;9.868;2022-07-03T03:27:25;14.60;99.90
5172;DHT22;2605;49.770;9.868;2022-07-03T03:29:52;14.50;99.90
5172;DHT22;2605;49.770;9.868;2022-07-03T03:32:19;14.50;99.90
5172;DHT22;2605;49.770;9.868;2022-07-03T03:34:45;14.40;99.90
5172;DHT22;2605;49.770;9.868;2022-07-03T03:37:11;14.40;99.90
5172;DHT22;2605;49.770;9.868;2022-07-03T03:39:37;14.30;99.90
5172;DHT22;2605;49.770;9.868;2022-07-03T03:42:04;14.30;99.90
5172;DHT22;2605;49.770;9.868;2022-07-03T03:44:29;14.30;99.90
5172;DHT22;2605;49.770;9.868;2022-07-03T03:46:55;14.30;99.90
5172;DHT22;2605;49.770;9.868;2022-07-03T03:49:21;14.20;99.90
5172;DHT22;2605;49.770;9.868;2022-07-03T03:51:47;14.30;99.90
5172;DHT22;2605;49.770;9.868;2022-07-03T03:54:13;14.30;99.90
5172;DHT22;2605;49.770;9.868;2022-07-03T03:56:39;14.30;99.90
5172;DHT22;2605;49.770;9.868;2022-07-03T03:59:04;14.30;99.90
5172;DHT22;2605;49.770;9.868;2022-07-03T04:01:30;14.40;99.90
5172;DHT22;2605;49.770;9.868;2022-07-03T04:03:55;14.40;99.90
5172;DHT22;2605;49.770;9.868;2022-07-03T04:06:21;14.50;99.90
5172;DHT22;2605;49.770;9.868;2022-07-03T04:08:46;14.50;99.90
5172;DHT22;2605;49.770;9.868;2022-07-03T04:11:15;14.60;99.90
5172;DHT22;2605;49.770;9.868;2022-07-03T04:13:40;14.60;99.90
5172;DHT22;2605;49.770;9.868;2022-07-03T04:16:06;14.70;99.90
5172;DHT22;2605;49.770;9.868;2022-07-03T04:18:31;14.60;99.90
5172;DHT22;2605;49.770;9.868;2022-07-03T04:20:57;14.70;99.90
5172;DHT22;2605;49.770;9.868;2022-07-03T04:23:22;14.70;99.90
5172;DHT22;2605;49.770;9.868;2022-07-03T04:25:48;14.70;99.90
5172;DHT22;2605;49.770;9.868;2022-07-03T04:28:13;14.80;99.90
5172;DHT22;2605;49.770;9.868;2022-07-03T04:30:39;14.80;99.90
5172;DHT22;2605;49.770;9.868;2022-07-03T04:33:05;14.90;99.90
5172;DHT22;2605;49.770;9.868;2022-07-03T04:35:30;15.00;99.90
5172;DHT22;2605;49.770;9.868;2022-07-03T04:37:55;15.10;99.90
5172;DHT22;2605;49.770;9.868;2022-07-03T04:40:21;15.10;99.90
5172;DHT22;2605;49.770;9.868;2022-07-03T04:42:46;15.20;99.90
5172;DHT22;2605;49.770;9.868;2022-07-03T04:45:12;15.20;99.90
5172;DHT22;2605;49.770;9.868;2022-07-03T04:47:38;15.30;99.90
5172;DHT22;2605;49.770;9.868;2022-07-03T04:50:03;15.30;99.90
5172;DHT22;2605;49.770;9.868;2022-07-03T04:52:29;15.30;99.90
5172;DHT22;2605;49.770;9.868;2022-07-03T04:54:54;15.40;99.90
5172;DHT22;2605;49.770;9.868;2022-07-03T04:57:20;15.50;99.90
5172;DHT22;2605;49.770;9.868;2022-07-03T04:59:45;15.60;99.90
5172;DHT22;2605;49.770;9.868;2022-07-03T05:02:12;15.60;99.90
5172;DHT22;2605;49.770;9.868;2022-07-03T05:04:37;15.60;99.90
5172;DHT22;2605;49.770;9.868;2022-07-03T05:07:03;15.70;99.90
5172;DHT22;2605;49.770;9.868;2022-07-03T05:09:29;15.90;99.90
5172;DHT22;2605;49.770;9.868;2022-07-03T05:11:54;15.90;99.90
5172;DHT22;2605;49.770;9.868;2022-07-03T05:14:20;16.00;99.90
5172;DHT22;2605;49.770;9.868;2022-07-03T05:16:45;16.10;99.90
5172;DHT22;2605;49.770;9.868;2022-07-03T05:19:11;16.10;99.90
5172;DHT22;2605;49.770;9.868;2022-07-03T05:21:36;16.20;99.90
5172;DHT22;2605;49.770;9.868;2022-07-03T05:24:02;16.30;99.90
5172;DHT22;2605;49.770;9.868;2022-07-03T05:26:27;16.40;99.90
5172;DHT22;2605;49.770;9.868;2022-07-03T05:28:53;16.40;99.90
5172;DHT22;2605;49.770;9.868;2022-07-03T05:31:18;16.60;99.90
5172;DHT22;2605;49.770;9.868;2022-07-03T05:33:47;16.70;99.90
5172;DHT22;2605;49.770;9.868;2022-07-03T05:36:12;16.80;99.90
5172;DHT22;2605;49.770;9.868;2022-07-03T05:38:38;16.90;99.90
5172;DHT22;2605;49.770;9.868;2022-07-03T05:41:22;16.90;99.90
5172;DHT22;2605;49.770;9.868;2022-07-03T05:43:47;17.10;99.90
5172;DHT22;2605;49.770;9.868;2022-07-03T05:46:13;17.20;99.90
5172;DHT22;2605;49.770;9.868;2022-07-03T05:48:38;17.30;99.90
5172;DHT22;2605;49.770;9.868;2022-07-03T05:51:04;17.40;99.90
5172;DHT22;2605;49.770;9.868;2022-07-03T05:53:30;17.40;99.90
5172;DHT22;2605;49.770;9.868;2022-07-03T05:55:56;17.60;99.90
5172;DHT22;2605;49.770;9.868;2022-07-03T05:58:22;17.70;99.90
5172;DHT22;2605;49.770;9.868;2022-07-03T06:00:47;17.80;99.90
5172;DHT22;2605;49.770;9.868;2022-07-03T06:03:13;17.90;99.90
5172;DHT22;2605;49.770;9.868;2022-07-03T06:05:38;18.00;99.90
5172;DHT22;2605;49.770;9.868;2022-07-03T06:08:04;18.10;99.90
5172;DHT22;2605;49.770;9.868;2022-07-03T06:10:30;18.20;99.90
5172;DHT22;2605;49.770;9.868;2022-07-03T06:12:56;18.30;99.90
5172;DHT22;2605;49.770;9.868;2022-07-03T06:15:21;18.40;99.90
5172;DHT22;2605;49.770;9.868;2022-07-03T06:17:47;18.50;99.90
5172;DHT22;2605;49.770;9.868;2022-07-03T06:20:13;18.60;99.90
5172;DHT22;2605;49.770;9.868;2022-07-03T06:22:39;18.70;99.90
5172;DHT22;2605;49.770;9.868;2022-07-03T06:25:06;18.80;99.90
5172;DHT22;2605;49.770;9.868;2022-07-03T06:27:32;19.00;99.90
5172;DHT22;2605;49.770;9.868;2022-07-03T06:29:58;19.10;99.90
5172;DHT22;2605;49.770;9.868;2022-07-03T06:32:23;19.30;99.90
5172;DHT22;2605;49.770;9.868;2022-07-03T06:34:49;19.30;99.90
5172;DHT22;2605;49.770;9.868;2022-07-03T06:37:15;19.40;99.90
5172;DHT22;2605;49.770;9.868;2022-07-03T06:39:41;19.60;99.90
5172;DHT22;2605;49.770;9.868;2022-07-03T06:42:06;19.70;99.90
5172;DHT22;2605;49.770;9.868;2022-07-03T06:44:32;19.80;99.90
5172;DHT22;2605;49.770;9.868;2022-07-03T06:46:58;19.90;99.90
5172;DHT22;2605;49.770;9.868;2022-07-03T06:49:24;20.00;99.90
5172;DHT22;2605;49.770;9.868;2022-07-03T06:51:50;20.10;99.90
5172;DHT22;2605;49.770;9.868;2022-07-03T06:54:16;20.30;99.90
5172;DHT22;2605;49.770;9.868;2022-07-03T06:56:41;20.40;99.90
5172;DHT22;2605;49.770;9.868;2022-07-03T06:59:10;20.50;99.90
5172;DHT22;2605;49.770;9.868;2022-07-03T07:01:35;20.60;99.90
5172;DHT22;2605;49.770;9.868;2022-07-03T07:04:00;20.70;99.90
5172;DHT22;2605;49.770;9.868;2022-07-03T07:06:30;20.70;99.90
5172;DHT22;2605;49.770;9.868;2022-07-03T07:08:55;20.90;99.90
5172;DHT22;2605;49.770;9.868;2022-07-03T07:11:21;21.00;99.90
5172;DHT22;2605;49.770;9.868;2022-07-03T07:13:46;21.10;99.90
5172;DHT22;2605;49.770;9.868;2022-07-03T07:16:12;21.40;99.90
5172;DHT22;2605;49.770;9.868;2022-07-03T07:18:41;21.50;99.90
5172;DHT22;2605;49.770;9.868;2022-07-03T07:21:07;21.60;99.90
5172;DHT22;2605;49.770;9.868;2022-07-03T07:23:32;21.70;99.90
5172;DHT22;2605;49.770;9.868;2022-07-03T07:26:01;21.70;99.90
5172;DHT22;2605;49.770;9.868;2022-07-03T07:28:27;21.80;99.90
5172;DHT22;2605;49.770;9.868;2022-07-03T07:30:53;22.00;99.90
5172;DHT22;2605;49.770;9.868;2022-07-03T07:33:21;22.20;99.90
5172;DHT22;2605;49.770;9.868;2022-07-03T07:35:46;22.20;99.90
5172;DHT22;2605;49.770;9.868;2022-07-03T07:38:12;22.30;99.90
5172;DHT22;2605;49.770;9.868;2022-07-03T07:40:37;22.40;99.90
5172;DHT22;2605;49.770;9.868;2022-07-03T07:43:03;22.60;99.90
5172;DHT22;2605;49.770;9.868;2022-07-03T07:45:34;22.70;99.90
5172;DHT22;2605;49.770;9.868;2022-07-03T07:48:00;22.80;99.90
5172;DHT22;2605;49.770;9.868;2022-07-03T07:50:26;22.90;99.90
5172;DHT22;2605;49.770;9.868;2022-07-03T07:52:52;23.00;99.90
5172;DHT22;2605;49.770;9.868;2022-07-03T07:55:17;23.00;99.90
5172;DHT22;2605;49.770;9.868;2022-07-03T07:57:43;23.10;99.90
5172;DHT22;2605;49.770;9.868;2022-07-03T08:00:17;23.30;99.90
5172;DHT22;2605;49.770;9.868;2022-07-03T08:02:44;23.30;99.90
5172;DHT22;2605;49.770;9.868;2022-07-03T08:05:29;23.10;99.90
5172;DHT22;2605;49.770;9.868;2022-07-03T08:08:19;23.10;99.90
5172;DHT22;2605;49.770;9.868;2022-07-03T08:10:49;23.20;99.90
5172;DHT22;2605;49.770;9.868;2022-07-03T08:13:16;23.50;99.90
5172;DHT22;2605;49.770;9.868;2022-07-03T08:15:43;23.50;99.90
5172;DHT22;2605;49.770;9.868;2022-07-03T08:18:09;23.70;99.90
5172;DHT22;2605;49.770;9.868;2022-07-03T08:20:36;23.70;99.90
5172;DHT22;2605;49.770;9.868;2022-07-03T08:23:03;24.00;99.90
5172;DHT22;2605;49.770;9.868;2022-07-03T08:25:29;24.20;99.90
5172;DHT22;2605;49.770;9.868;2022-07-03T08:27:55;24.20;99.90
5172;DHT22;2605;49.770;9.868;2022-07-03T08:30:21;24.10;99.90
5172;DHT22;2605;49.770;9.868;2022-07-03T08:32:48;24.10;99.90
5172;DHT22;2605;49.770;9.868;2022-07-03T08:35:14;24.30;99.90
5172;DHT22;2605;49.770;9.868;2022-07-03T08:37:40;24.40;99.90
5172;DHT22;2605;49.770;9.868;2022-07-03T08:40:07;24.40;99.90
5172;DHT22;2605;49.770;9.868;2022-07-03T08:42:35;24.50;99.90
5172;DHT22;2605;49.770;9.868;2022-07-03T08:45:02;24.60;99.90
5172;DHT22;2605;49.770;9.868;2022-07-03T08:47:29;24.70;99.90
5172;DHT22;2605;49.770;9.868;2022-07-03T08:49:58;24.70;99.90
5172;DHT22;2605;49.770;9.868;2022-07-03T08:52:26;24.70;99.90
5172;DHT22;2605;49.770;9.868;2022-07-03T08:54:52;24.80;99.90
5172;DHT22;2605;49.770;9.868;2022-07-03T08:57:18;25.10;99.90
5172;DHT22;2605;49.770;9.868;2022-07-03T08:59:46;25.20;99.90
5172;DHT22;2605;49.770;9.868;2022-07-03T09:02:16;25.40;99.90
5172;DHT22;2605;49.770;9.868;2022-07-03T09:04:42;25.40;99.90
5172;DHT22;2605;49.770;9.868;2022-07-03T09:07:09;25.40;99.90
5172;DHT22;2605;49.770;9.868;2022-07-03T09:09:38;25.40;99.90
5172;DHT22;2605;49.770;9.868;2022-07-03T09:12:04;25.60;99.90
5172;DHT22;2605;49.770;9.868;2022-07-03T09:14:30;26.10;99.90
5172;DHT22;2605;49.770;9.868;2022-07-03T09:16:55;26.10;99.90
5172;DHT22;2605;49.770;9.868;2022-07-03T09:19:43;26.30;99.90
5172;DHT22;2605;49.770;9.868;2022-07-03T09:22:23;26.40;99.90
5172;DHT22;2605;49.770;9.868;2022-07-03T09:25:12;26.80;99.90
5172;DHT22;2605;49.770;9.868;2022-07-03T09:27:52;27.10;99.90
5172;DHT22;2605;49.770;9.868;2022-07-03T09:30:18;27.40;99.90
5172;DHT22;2605;49.770;9.868;2022-07-03T09:32:46;27.30;99.90
5172;DHT22;2605;49.770;9.868;2022-07-03T09:35:26;27.30;99.90
5172;DHT22;2605;49.770;9.868;2022-07-03T09:37:57;27.50;99.90
5172;DHT22;2605;49.770;9.868;2022-07-03T09:40:24;27.80;99.90
5172;DHT22;2605;49.770;9.868;2022-07-03T09:45:22;27.80;99.90
5172;DHT22;2605;49.770;9.868;2022-07-03T09:47:48;27.60;99.90
5172;DHT22;2605;49.770;9.868;2022-07-03T09:50:15;27.90;99.90
5172;DHT22;2605;49.770;9.868;2022-07-03T09:52:48;28.30;99.90
5172;DHT22;2605;49.770;9.868;2022-07-03T09:55:16;28.30;99.90
5172;DHT22;2605;49.770;9.868;2022-07-03T10:00:23;28.20;99.90
5172;DHT22;2605;49.770;9.868;2022-07-03T10:05:36;28.70;99.90
5172;DHT22;2605;49.770;9.868;2022-07-03T10:10:43;28.50;99.90
5172;DHT22;2605;49.770;9.868;2022-07-03T10:13:09;28.80;99.90
5172;DHT22;2605;49.770;9.868;2022-07-03T10:15:37;29.10;99.90
5172;DHT22;2605;49.770;9.868;2022-07-03T10:18:08;29.30;99.90
5172;DHT22;2605;49.770;9.868;2022-07-03T10:20:40;29.20;99.90
5172;DHT22;2605;49.770;9.868;2022-07-03T10:23:06;29.10;99.90
5172;DHT22;2605;49.770;9.868;2022-07-03T10:25:33;29.40;99.90
5172;DHT22;2605;49.770;9.868;2022-07-03T10:28:00;29.40;99.90
5172;DHT22;2605;49.770;9.868;2022-07-03T10:30:26;29.20;99.90
5172;DHT22;2605;49.770;9.868;2022-07-03T10:32:53;28.80;98.10
5172;DHT22;2605;49.770;9.868;2022-07-03T10:35:25;28.40;99.90
5172;DHT22;2605;49.770;9.868;2022-07-03T10:43:50;29.70;99.90
5172;DHT22;2605;49.770;9.868;2022-07-03T10:46:35;29.60;99.90
5172;DHT22;2605;49.770;9.868;2022-07-03T10:51:58;29.40;99.80
5172;DHT22;2605;49.770;9.868;2022-07-03T10:54:29;29.80;98.10
5172;DHT22;2605;49.770;9.868;2022-07-03T11:02:29;30.10;96.70
5172;DHT22;2605;49.770;9.868;2022-07-03T11:07:31;30.00;96.80
5172;DHT22;2605;49.770;9.868;2022-07-03T11:13:00;30.30;95.10
5172;DHT22;2605;49.770;9.868;2022-07-03T11:15:34;29.90;95.00
5172;DHT22;2605;49.770;9.868;2022-07-03T11:20:55;29.00;94.40
5172;DHT22;2605;49.770;9.868;2022-07-03T11:23:30;29.00;95.10
5172;DHT22;2605;49.770;9.868;2022-07-03T11:26:20;29.00;95.10
5172;DHT22;2605;49.770;9.868;2022-07-03T11:33:57;29.70;94.00
5172;DHT22;2605;49.770;9.868;2022-07-03T11:36:29;30.10;93.40
5172;DHT22;2605;49.770;9.868;2022-07-03T11:41:20;30.00;93.10
5172;DHT22;2605;49.770;9.868;2022-07-03T11:43:53;29.50;91.80
5172;DHT22;2605;49.770;9.868;2022-07-03T11:46:21;29.40;93.30
5172;DHT22;2605;49.770;9.868;2022-07-03T11:49:03;29.20;93.00
5172;DHT22;2605;49.770;9.868;2022-07-03T11:51:29;29.40;93.60
5172;DHT22;2605;49.770;9.868;2022-07-03T11:53:54;29.50;92.80
5172;DHT22;2605;49.770;9.868;2022-07-03T11:56:20;29.20;92.20
5172;DHT22;2605;49.770;9.868;2022-07-03T12:01:31;29.60;93.20
5172;DHT22;2605;49.770;9.868;2022-07-03T12:06:40;29.70;92.00
5172;DHT22;2605;49.770;9.868;2022-07-03T12:09:25;29.30;90.60
5172;DHT22;2605;49.770;9.868;2022-07-03T12:12:12;29.00;92.30
5172;DHT22;2605;49.770;9.868;2022-07-03T12:14:51;29.00;91.80
5172;DHT22;2605;49.770;9.868;2022-07-03T12:17:21;28.40;91.90
5172;DHT22;2605;49.770;9.868;2022-07-03T12:19:57;28.50;91.80
5172;DHT22;2605;49.770;9.868;2022-07-03T12:22:24;28.70;92.60
5172;DHT22;2605;49.770;9.868;2022-07-03T12:25:17;28.60;92.20
5172;DHT22;2605;49.770;9.868;2022-07-03T12:27:44;28.60;91.60
5172;DHT22;2605;49.770;9.868;2022-07-03T12:30:13;28.70;91.60
5172;DHT22;2605;49.770;9.868;2022-07-03T12:32:45;28.60;91.50
5172;DHT22;2605;49.770;9.868;2022-07-03T12:35:11;28.80;92.30
5172;DHT22;2605;49.770;9.868;2022-07-03T12:37:39;28.80;91.90
5172;DHT22;2605;49.770;9.868;2022-07-03T12:40:11;28.70;92.00
5172;DHT22;2605;49.770;9.868;2022-07-03T12:42:47;28.80;91.60
5172;DHT22;2605;49.770;9.868;2022-07-03T12:45:16;28.50;91.10
5172;DHT22;2605;49.770;9.868;2022-07-03T12:47:45;28.50;90.60
5172;DHT22;2605;49.770;9.868;2022-07-03T12:50:11;28.70;91.80
5172;DHT22;2605;49.770;9.868;2022-07-03T12:52:54;29.00;91.10
5172;DHT22;2605;49.770;9.868;2022-07-03T12:55:29;29.30;91.50
5172;DHT22;2605;49.770;9.868;2022-07-03T12:58:15;29.10;90.70
5172;DHT22;2605;49.770;9.868;2022-07-03T13:01:00;28.70;91.50
5172;DHT22;2605;49.770;9.868;2022-07-03T13:03:29;28.60;91.30
5172;DHT22;2605;49.770;9.868;2022-07-03T13:05:58;28.50;91.40
5172;DHT22;2605;49.770;9.868;2022-07-03T13:08:24;28.50;91.90
5172;DHT22;2605;49.770;9.868;2022-07-03T13:10:59;28.90;92.80
5172;DHT22;2605;49.770;9.868;2022-07-03T13:13:25;29.30;91.80
5172;DHT22;2605;49.770;9.868;2022-07-03T13:15:51;29.30;90.70
5172;DHT22;2605;49.770;9.868;2022-07-03T13:18:17;29.50;91.80
5172;DHT22;2605;49.770;9.868;2022-07-03T13:20:43;29.70;91.20
5172;DHT22;2605;49.770;9.868;2022-07-03T13:23:08;29.60;89.20
5172;DHT22;2605;49.770;9.868;2022-07-03T13:25:37;29.60;89.00
5172;DHT22;2605;49.770;9.868;2022-07-03T13:28:12;29.80;89.50
5172;DHT22;2605;49.770;9.868;2022-07-03T13:30:42;29.90;90.00
5172;DHT22;2605;49.770;9.868;2022-07-03T13:33:08;30.00;89.40
5172;DHT22;2605;49.770;9.868;2022-07-03T13:35:35;30.10;89.60
5172;DHT22;2605;49.770;9.868;2022-07-03T13:38:01;30.30;90.00
5172;DHT22;2605;49.770;9.868;2022-07-03T13:40:27;30.40;89.10
5172;DHT22;2605;49.770;9.868;2022-07-03T13:42:52;30.60;86.70
5172;DHT22;2605;49.770;9.868;2022-07-03T13:45:18;30.70;87.20
5172;DHT22;2605;49.770;9.868;2022-07-03T13:47:43;30.30;82.80
5172;DHT22;2605;49.770;9.868;2022-07-03T13:50:09;29.60;85.20
5172;DHT22;2605;49.770;9.868;2022-07-03T13:52:35;30.10;85.50
5172;DHT22;2605;49.770;9.868;2022-07-03T13:55:02;31.50;82.60
5172;DHT22;2605;49.770;9.868;2022-07-03T13:57:28;34.00;76.30
5172;DHT22;2605;49.770;9.868;2022-07-03T13:59:53;35.60;69.10
5172;DHT22;2605;49.770;9.868;2022-07-03T14:02:18;35.90;60.50
5172;DHT22;2605;49.770;9.868;2022-07-03T14:04:44;36.30;57.60
5172;DHT22;2605;49.770;9.868;2022-07-03T14:07:09;37.90;56.20
5172;DHT22;2605;49.770;9.868;2022-07-03T14:09:35;39.50;51.40
5172;DHT22;2605;49.770;9.868;2022-07-03T14:12:00;41.10;46.30
5172;DHT22;2605;49.770;9.868;2022-07-03T14:14:26;42.50;39.70
5172;DHT22;2605;49.770;9.868;2022-07-03T14:16:52;42.00;35.30
5172;DHT22;2605;49.770;9.868;2022-07-03T14:19:18;42.20;33.60
5172;DHT22;2605;49.770;9.868;2022-07-03T14:21:44;42.30;32.20
5172;DHT22;2605;49.770;9.868;2022-07-03T14:24:09;42.70;31.80
5172;DHT22;2605;49.770;9.868;2022-07-03T14:26:35;43.50;30.60
5172;DHT22;2605;49.770;9.868;2022-07-03T14:29:20;41.90;28.50
5172;DHT22;2605;49.770;9.868;2022-07-03T14:32:04;42.80;29.10
5172;DHT22;2605;49.770;9.868;2022-07-03T14:34:48;45.50;28.20
5172;DHT22;2605;49.770;9.868;2022-07-03T14:37:14;45.80;25.80
5172;DHT22;2605;49.770;9.868;2022-07-03T14:39:46;45.20;24.50
5172;DHT22;2605;49.770;9.868;2022-07-03T14:42:12;45.50;24.60
5172;DHT22;2605;49.770;9.868;2022-07-03T14:44:37;44.60;24.40
5172;DHT22;2605;49.770;9.868;2022-07-03T14:47:03;45.30;24.80
5172;DHT22;2605;49.770;9.868;2022-07-03T14:49:29;46.50;23.60
5172;DHT22;2605;49.770;9.868;2022-07-03T14:51:54;47.70;22.80
5172;DHT22;2605;49.770;9.868;2022-07-03T14:54:20;49.40;21.50
5172;DHT22;2605;49.770;9.868;2022-07-03T14:56:56;49.00;20.90
5172;DHT22;2605;49.770;9.868;2022-07-03T15:02:22;44.40;21.50
5172;DHT22;2605;49.770;9.868;2022-07-03T15:05:08;43.10;22.20
5172;DHT22;2605;49.770;9.868;2022-07-03T15:07:38;42.90;21.60
5172;DHT22;2605;49.770;9.868;2022-07-03T15:10:06;43.90;22.50
5172;DHT22;2605;49.770;9.868;2022-07-03T15:12:33;44.00;21.90
5172;DHT22;2605;49.770;9.868;2022-07-03T15:15:01;43.40;22.80
5172;DHT22;2605;49.770;9.868;2022-07-03T15:17:27;42.30;23.00
5172;DHT22;2605;49.770;9.868;2022-07-03T15:19:58;44.10;22.80
5172;DHT22;2605;49.770;9.868;2022-07-03T15:22:25;44.80;21.10
5172;DHT22;2605;49.770;9.868;2022-07-03T15:24:52;41.80;21.90
5172;DHT22;2605;49.770;9.868;2022-07-03T15:27:20;43.10;22.90
5172;DHT22;2605;49.770;9.868;2022-07-03T15:29:46;44.60;21.40
5172;DHT22;2605;49.770;9.868;2022-07-03T15:32:13;44.90;21.70
5172;DHT22;2605;49.770;9.868;2022-07-03T15:34:39;46.20;20.70
5172;DHT22;2605;49.770;9.868;2022-07-03T15:40:06;45.70;20.00
5172;DHT22;2605;49.770;9.868;2022-07-03T15:42:51;46.00;19.40
5172;DHT22;2605;49.770;9.868;2022-07-03T15:48:28;43.50;20.10
5172;DHT22;2605;49.770;9.868;2022-07-03T15:51:10;42.10;21.80
5172;DHT22;2605;49.770;9.868;2022-07-03T15:53:40;42.90;22.00
5172;DHT22;2605;49.770;9.868;2022-07-03T15:56:07;44.70;20.80
5172;DHT22;2605;49.770;9.868;2022-07-03T15:58:36;46.40;20.60
5172;DHT22;2605;49.770;9.868;2022-07-03T16:01:09;45.50;20.30
5172;DHT22;2605;49.770;9.868;2022-07-03T16:04:02;45.50;21.00
5172;DHT22;2605;49.770;9.868;2022-07-03T16:06:30;45.80;20.30
5172;DHT22;2605;49.770;9.868;2022-07-03T16:08:56;46.20;20.20
5172;DHT22;2605;49.770;9.868;2022-07-03T16:11:22;43.90;19.60
5172;DHT22;2605;49.770;9.868;2022-07-03T16:13:48;40.40;21.60
5172;DHT22;2605;49.770;9.868;2022-07-03T16:16:20;39.40;23.80
5172;DHT22;2605;49.770;9.868;2022-07-03T16:18:46;38.10;24.80
5172;DHT22;2605;49.770;9.868;2022-07-03T16:21:15;37.90;26.10
5172;DHT22;2605;49.770;9.868;2022-07-03T16:23:46;40.80;25.10
5172;DHT22;2605;49.770;9.868;2022-07-03T16:26:16;43.20;22.60
5172;DHT22;2605;49.770;9.868;2022-07-03T16:28:42;44.30;21.70
5172;DHT22;2605;49.770;9.868;2022-07-03T16:31:11;44.40;21.60
5172;DHT22;2605;49.770;9.868;2022-07-03T16:33:42;43.00;21.10
5172;DHT22;2605;49.770;9.868;2022-07-03T16:36:14;42.40;22.20
5172;DHT22;2605;49.770;9.868;2022-07-03T16:38:45;43.30;21.80
5172;DHT22;2605;49.770;9.868;2022-07-03T16:41:12;41.70;22.00
5172;DHT22;2605;49.770;9.868;2022-07-03T16:43:39;41.90;22.60
5172;DHT22;2605;49.770;9.868;2022-07-03T16:46:09;41.30;22.50
5172;DHT22;2605;49.770;9.868;2022-07-03T16:48:42;40.30;23.50
5172;DHT22;2605;49.770;9.868;2022-07-03T16:51:09;41.00;23.90
5172;DHT22;2605;49.770;9.868;2022-07-03T16:53:37;41.30;23.10
5172;DHT22;2605;49.770;9.868;2022-07-03T16:56:04;41.10;22.80
5172;DHT22;2605;49.770;9.868;2022-07-03T16:58:30;39.40;23.50
5172;DHT22;2605;49.770;9.868;2022-07-03T17:01:01;37.90;24.20
5172;DHT22;2605;49.770;9.868;2022-07-03T17:03:29;38.10;24.70
5172;DHT22;2605;49.770;9.868;2022-07-03T17:05:58;38.00;24.90
5172;DHT22;2605;49.770;9.868;2022-07-03T17:08:24;36.60;25.80
5172;DHT22;2605;49.770;9.868;2022-07-03T17:10:50;36.30;28.30
5172;DHT22;2605;49.770;9.868;2022-07-03T17:13:19;36.00;29.00
5172;DHT22;2605;49.770;9.868;2022-07-03T17:15:45;35.30;30.50
5172;DHT22;2605;49.770;9.868;2022-07-03T17:18:11;35.70;31.40
5172;DHT22;2605;49.770;9.868;2022-07-03T17:20:42;34.90;32.80
5172;DHT22;2605;49.770;9.868;2022-07-03T17:23:16;34.50;34.00
5172;DHT22;2605;49.770;9.868;2022-07-03T17:25:56;34.30;34.40
5172;DHT22;2605;49.770;9.868;2022-07-03T17:28:24;34.30;33.90
5172;DHT22;2605;49.770;9.868;2022-07-03T17:31:05;34.80;32.70
5172;DHT22;2605;49.770;9.868;2022-07-03T17:33:32;35.20;33.70
5172;DHT22;2605;49.770;9.868;2022-07-03T17:36:06;34.90;33.00